Time;durP1;ratioP1;P1;durP2;ratioP2;P2;SDS_P1;SDS_P2;PMS_P1;PMS_P2;Temp;Humidity;BMP_temperature;BMP_pressure;BME280_temperature;BME280_humidity;BME280_pressure;Samples;Min_cycle;Max_cycle;Signal;HPM_P1;HPM_P2
2024/04/15 00:01:34;;;;;;;;;21.00;19.50;;;;;14.15;100.00;99353.72;6269759;20;2848180;-37
2024/04/15 00:04:02;;;;;;;;;20.00;16.50;;;;;14.06;100.00;99346.38;6272604;20;2823245;-37
2024/04/15 00:06:29;;;;;;;;;18.00;18.00;;;;;13.82;100.00;99341.97;6271066;20;2827419;-38
2024/04/15 00:08:56;;;;;;;;;17.00;17.00;;;;;13.55;100.00;99331.53;6270482;20;2828408;-37
2024/04/15 00:11:23;;;;;;;;;19.50;18.00;;;;;13.73;100.00;99326.50;6270447;20;2496085;-38
2024/04/15 00:13:50;;;;;;;;;17.50;17.00;;;;;13.94;100.00;99333.88;6274714;20;2500392;-37
2024/04/15 00:16:17;;;;;;;;;18.50;17.00;;;;;13.82;100.00;99327.59;6274837;20;2825326;-37
2024/04/15 00:18:45;;;;;;;;;20.50;17.00;;;;;13.51;100.00;99323.84;6274663;20;2835737;-37
2024/04/15 00:21:12;;;;;;;;;21.00;21.00;;;;;13.99;100.00;99324.41;6276672;20;2843075;-37
2024/04/15 00:23:39;;;;;;;;;21.50;19.00;;;;;14.29;100.00;99322.88;6275610;20;2500341;-37
2024/04/15 00:26:05;;;;;;;;;18.00;16.00;;;;;13.42;100.00;99313.75;6274338;20;2498270;-37
2024/04/15 00:28:33;;;;;;;;;20.00;19.00;;;;;13.52;100.00;99315.59;6277490;20;2835776;-38
2024/04/15 00:31:01;;;;;;;;;20.00;19.50;;;;;14.08;100.00;99312.00;6274246;20;2829577;-38
2024/04/15 00:33:27;;;;;;;;;17.50;17.50;;;;;13.44;100.00;99309.13;6275870;20;2496262;-36
2024/04/15 00:35:55;;;;;;;;;20.00;20.00;;;;;13.35;100.00;99300.78;6277498;20;2845064;-36
2024/04/15 00:38:22;;;;;;;;;19.33;19.33;;;;;13.54;100.00;99310.09;6278170;20;3577335;-37
2024/04/15 00:40:50;;;;;;;;;19.00;18.00;;;;;13.52;100.00;99298.56;6274685;20;2838860;-36
2024/04/15 00:43:17;;;;;;;;;20.00;17.00;;;;;13.03;100.00;99294.31;6273883;20;2823350;-36
2024/04/15 00:45:45;;;;;;;;;17.00;16.50;;;;;13.03;100.00;99286.22;6273907;20;2826340;-37
2024/04/15 00:48:17;;;;;;;;;21.00;19.00;;;;;12.94;100.00;99282.44;6274894;20;2779499;-37
2024/04/15 00:50:47;;;;;;;;;18.33;17.67;;;;;12.97;100.00;99276.78;6308677;20;3562854;-37
2024/04/15 00:53:18;;;;;;;;;17.00;17.00;;;;;12.87;100.00;99281.19;6308404;20;2835698;-36
2024/04/15 00:55:51;;;;;;;;;17.50;16.50;;;;;13.03;100.00;99264.66;6276316;20;2835711;-37
2024/04/15 00:58:20;;;;;;;;;20.50;17.50;;;;;13.08;100.00;99259.78;6275459;20;2836894;-41
2024/04/15 01:00:48;;;;;;;;;20.00;17.00;;;;;12.92;100.00;99257.44;6273321;20;2837923;-38
2024/04/15 01:03:16;;;;;;;;;18.00;17.00;;;;;13.16;100.00;99255.53;6277397;20;2839855;-38
2024/04/15 01:05:43;;;;;;;;;19.00;19.00;;;;;13.17;100.00;99253.69;6272649;20;2835666;-40
2024/04/15 01:08:12;;;;;;;;;16.50;16.00;;;;;13.14;100.00;99245.84;6274637;20;2832610;-38
2024/04/15 01:10:41;;;;;;;;;19.00;17.67;;;;;13.15;100.00;99243.00;6273220;20;3557602;-39
2024/04/15 01:13:09;;;;;;;;;20.00;20.00;;;;;13.06;100.00;99237.47;6273565;20;2831601;-39
2024/04/15 01:15:36;;;;;;;;;19.50;19.50;;;;;12.66;100.00;99237.91;6275795;20;2837933;-38
2024/04/15 01:18:04;;;;;;;;;18.00;17.00;;;;;12.88;100.00;99229.88;6273712;20;2829421;-38
2024/04/15 01:20:32;;;;;;;;;21.00;21.00;;;;;12.91;100.00;99224.25;6276346;20;2838859;-39
2024/04/15 01:23:14;;;;;;;;;18.50;18.00;;;;;13.20;100.00;99222.91;6275401;20;2826448;-37
2024/04/15 01:25:41;;;;;;;;;19.50;16.50;;;;;13.53;100.00;99220.25;6274198;20;2485673;-38
2024/04/15 01:28:10;;;;;;;;;19.50;17.50;;;;;13.11;100.00;99211.00;6275360;20;2837814;-38
2024/04/15 01:30:37;;;;;;;;;19.50;19.50;;;;;13.09;100.00;99204.91;6273806;20;2840458;-38
2024/04/15 01:33:06;;;;;;;;;22.00;19.00;;;;;13.23;100.00;99201.97;6274812;20;2833824;-37
2024/04/15 01:35:33;;;;;;;;;21.00;20.00;;;;;13.17;100.00;99194.38;6276085;20;2835755;-38
2024/04/15 01:38:02;;;;;;;;;16.00;16.00;;;;;13.28;100.00;99189.00;6277060;20;3555580;-39
2024/04/15 01:40:30;;;;;;;;;18.50;17.00;;;;;13.46;100.00;99191.19;6275305;20;2831553;-38
2024/04/15 01:42:57;;;;;;;;;18.00;18.00;;;;;13.55;100.00;99190.44;6274832;20;2834682;-39
2024/04/15 01:45:24;;;;;;;;;17.50;17.50;;;;;13.78;100.00;99181.28;6274549;20;2837766;-38
2024/04/15 01:47:52;;;;;;;;;21.00;20.00;;;;;13.44;100.00;99185.06;6276399;20;2825454;-38
2024/04/15 01:50:20;;;;;;;;;19.00;19.00;;;;;13.09;100.00;99180.66;6274608;20;2837851;-38
2024/04/15 01:52:48;;;;;;;;;18.50;18.50;;;;;13.30;100.00;99180.78;6272672;20;2840156;-37
2024/04/15 01:55:15;;;;;;;;;17.00;16.50;;;;;12.87;100.00;99174.25;6274680;20;2833624;-38
2024/04/15 01:57:43;;;;;;;;;20.50;20.50;;;;;12.80;100.00;99172.19;6274303;20;2844142;-38
2024/04/15 02:00:12;;;;;;;;;22.00;22.00;;;;;12.61;100.00;99157.50;6277367;20;3581728;-37
2024/04/15 02:02:38;;;;;;;;;19.00;18.00;;;;;11.98;100.00;99150.69;6271445;20;2500484;-38
2024/04/15 02:05:07;;;;;;;;;14.00;14.00;;;;;11.80;100.00;99142.16;6272662;20;3533588;-37
2024/04/15 02:07:38;;;;;;;;;17.00;17.00;;;;;11.68;100.00;99137.69;6272600;20;2826450;-37
2024/04/15 02:10:06;;;;;;;;;17.00;17.00;;;;;11.61;100.00;99134.59;6272238;20;2831534;-38
2024/04/15 02:12:33;;;;;;;;;22.00;22.00;;;;;12.27;100.00;99143.09;6272345;20;2500313;-38
2024/04/15 02:15:01;;;;;;;;;20.33;19.00;;;;;12.72;100.00;99148.56;6276696;20;3579449;-41
2024/04/15 02:17:28;;;;;;;;;21.00;21.00;;;;;12.59;100.00;99142.44;6304122;20;2848371;-38
2024/04/15 02:19:56;;;;;;;;;21.00;19.50;;;;;12.89;100.00;99141.81;6273575;20;2840968;-38
2024/04/15 02:22:24;;;;;;;;;26.67;24.33;;;;;12.64;100.00;99129.47;6276180;20;2860657;-38
2024/04/15 02:24:52;;;;;;;;;21.00;18.67;;;;;12.82;100.00;99125.28;6305942;20;3569035;-38
2024/04/15 02:27:19;;;;;;;;;23.00;22.00;;;;;12.49;100.00;99116.19;6270467;20;3584791;-38
2024/04/15 02:29:47;;;;;;;;;24.00;22.67;;;;;12.85;100.00;99122.34;6270694;20;2852352;-38
2024/04/15 02:32:15;;;;;;;;;24.33;24.33;;;;;12.76;100.00;99112.28;6306703;20;3600348;-38
2024/04/15 02:34:42;;;;;;;;;27.33;25.33;;;;;12.39;100.00;99108.97;6274333;20;3605541;-38
2024/04/15 02:37:11;;;;;;;;;28.00;25.33;;;;;12.38;100.00;99108.13;6274172;20;3602512;-38
2024/04/15 02:39:38;;;;;;;;;23.00;21.00;;;;;12.08;100.00;99093.38;6302255;20;2838835;-38
2024/04/15 02:42:07;;;;;;;;;24.67;21.67;;;;;12.33;100.00;99096.00;6270758;20;2852544;-38
2024/04/15 02:44:35;;;;;;;;;22.00;21.00;;;;;12.76;100.00;99089.91;6305137;20;2840905;-37
2024/04/15 02:47:03;;;;;;;;;20.33;20.33;;;;;13.05;100.00;99096.47;6302424;20;2846097;-38
2024/04/15 02:49:31;;;;;;;;;23.00;20.00;;;;;12.23;100.00;99083.25;6302879;20;3566984;-38
2024/04/15 02:51:58;;;;;;;;;20.00;20.00;;;;;11.68;100.00;99075.84;6301173;20;2834675;-39
2024/04/15 02:54:26;;;;;;;;;23.00;21.50;;;;;11.40;100.00;99072.53;6272592;20;2843191;-38
2024/04/15 02:56:53;;;;;;;;;21.00;19.50;;;;;12.40;100.00;99083.75;6266679;20;2845035;-39
2024/04/15 02:59:21;;;;;;;;;21.67;21.33;;;;;12.69;100.00;99078.75;6272111;20;3581476;-37
2024/04/15 03:01:48;;;;;;;;;21.00;21.00;;;;;12.01;100.00;99069.75;6269909;20;2837831;-38
2024/04/15 03:04:16;;;;;;;;;21.00;21.00;;;;;11.92;100.00;99063.25;6273015;20;2846157;-38
2024/04/15 03:06:43;;;;;;;;;22.00;21.00;;;;;11.91;100.00;99066.91;6273699;20;2831531;-39
2024/04/15 03:09:12;;;;;;;;;25.00;24.00;;;;;11.93;100.00;99058.72;6272698;20;2848276;-37
2024/04/15 03:11:39;;;;;;;;;23.00;22.00;;;;;12.14;100.00;99056.19;6304068;20;2845131;-37
2024/04/15 03:14:08;;;;;;;;;25.67;24.00;;;;;12.13;100.00;99047.25;6271558;20;2847249;-37
2024/04/15 03:16:35;;;;;;;;;24.33;19.67;;;;;12.43;100.00;99046.69;6303669;20;3571176;-37
2024/04/15 03:19:02;;;;;;;;;22.67;20.33;;;;;12.27;100.00;99046.19;6307277;20;3589871;-37
2024/04/15 03:21:31;;;;;;;;;25.00;22.00;;;;;12.01;100.00;99035.63;6268796;20;2846382;-37
2024/04/15 03:23:58;;;;;;;;;25.33;25.00;;;;;12.45;100.00;99038.47;6306072;20;3594109;-37
2024/04/15 03:26:27;;;;;;;;;26.00;25.67;;;;;12.08;100.00;99030.63;6272686;20;2854571;-37
2024/04/15 03:28:54;;;;;;;;;26.33;25.00;;;;;12.01;100.00;99016.81;6303790;20;3598262;-36
2024/04/15 03:31:22;;;;;;;;;23.67;22.00;;;;;12.37;100.00;99022.94;6275175;20;2843170;-37
2024/04/15 03:33:51;;;;;;;;;38.00;27.75;;;;;12.30;100.00;99016.34;6304097;20;4387771;-37
2024/04/15 03:36:18;;;;;;;;;34.67;27.33;;;;;12.14;100.00;99023.88;6306751;20;3625326;-37
2024/04/15 03:38:46;;;;;;;;;26.33;25.00;;;;;12.42;100.00;99018.03;6272676;20;3594018;-37
2024/04/15 03:41:14;;;;;;;;;25.67;25.33;;;;;11.98;100.00;99014.38;6270449;20;2856770;-37
2024/04/15 03:43:41;;;;;;;;;23.00;20.33;;;;;11.74;100.00;99005.47;6306306;20;3573241;-37
2024/04/15 03:46:10;;;;;;;;;29.00;25.00;;;;;11.82;100.00;99013.78;6270001;20;2846859;-37
2024/04/15 03:48:37;;;;;;;;;26.00;24.67;;;;;12.17;100.00;99002.16;6305860;20;3598179;-37
2024/04/15 03:51:05;;;;;;;;;24.00;24.00;;;;;12.10;100.00;99012.53;6273641;20;2845258;-36
2024/04/15 03:53:33;;;;;;;;;25.00;23.33;;;;;11.89;100.00;99007.00;6271964;20;2852465;-37
2024/04/15 03:56:01;;;;;;;;;22.00;21.00;;;;;11.63;100.00;98999.06;6302813;20;2782606;-37
2024/04/15 03:58:29;;;;;;;;;25.00;23.33;;;;;11.59;100.00;99000.31;6268667;20;2852490;-37
2024/04/15 04:01:03;;;;;;;;;26.33;24.00;;;;;11.77;100.00;98995.34;6305764;20;3592991;-37
2024/04/15 04:03:31;;;;;;;;;24.00;22.00;;;;;11.73;100.00;99001.06;6271684;20;2849353;-36
2024/04/15 04:05:59;;;;;;;;;24.00;23.00;;;;;12.20;100.00;98999.22;6306396;20;3584641;-37
2024/04/15 04:08:26;;;;;;;;;20.00;20.00;;;;;12.26;100.00;98996.03;6271213;20;2835816;-38
2024/04/15 04:10:54;;;;;;;;;29.00;27.00;;;;;12.00;100.00;98996.25;6276513;20;3584639;-37
2024/04/15 04:13:22;;;;;;;;;23.33;22.00;;;;;12.25;100.00;98992.47;6270702;20;3587924;-37
2024/04/15 04:15:49;;;;;;;;;24.33;23.00;;;;;12.47;100.00;98998.84;6305031;20;3587804;-37
2024/04/15 04:18:17;;;;;;;;;25.00;21.50;;;;;12.88;100.00;98995.47;6271229;20;2846146;-37
2024/04/15 04:20:46;;;;;;;;;27.00;24.67;;;;;13.43;100.00;98999.94;6300313;20;2855748;-37
2024/04/15 04:23:13;;;;;;;;;22.00;18.00;;;;;13.43;100.00;98986.47;6304688;20;2831565;-37
2024/04/15 04:25:41;;;;;;;;;21.00;21.00;;;;;13.97;100.00;98996.22;6272712;20;2845113;-38
2024/04/15 04:28:08;;;;;;;;;18.00;18.00;;;;;14.25;100.00;98989.28;6271586;20;2832564;-37
2024/04/15 04:30:36;;;;;;;;;17.00;17.00;;;;;13.98;100.00;98997.94;6269248;20;2837799;-37
2024/04/15 04:33:04;;;;;;;;;18.00;16.50;;;;;14.19;100.00;98996.09;6272208;20;2500273;-37
2024/04/15 04:35:41;;;;;;;;;19.00;17.50;;;;;14.25;100.00;98994.69;6271059;20;2825342;-37
2024/04/15 04:38:08;;;;;;;;;19.00;17.00;;;;;14.32;100.00;98987.72;6268365;20;2483678;-37
2024/04/15 04:40:36;;;;;;;;;17.50;17.50;;;;;14.41;100.00;98988.78;6269341;20;2844045;-36
2024/04/15 04:43:03;;;;;;;;;23.50;18.00;;;;;13.64;100.00;98981.97;6268806;20;2833614;-37
2024/04/15 04:45:32;;;;;;;;;17.00;17.00;;;;;13.94;100.00;98981.16;6268664;20;2832646;-37
2024/04/15 04:48:00;;;;;;;;;17.00;17.00;;;;;14.07;100.00;98980.09;6269889;20;2827450;-37
2024/04/15 04:50:27;;;;;;;;;17.67;16.00;;;;;14.43;100.00;98984.09;6268178;20;2829507;-37
2024/04/15 04:52:54;;;;;;;;;18.00;16.00;;;;;15.05;93.00;98977.59;6299684;20;2491942;-37
2024/04/15 04:55:23;;;;;;;;;16.50;16.00;;;;;15.06;94.12;98976.63;6267522;20;2825411;-37
2024/04/15 04:57:50;;;;;;;;;15.00;13.67;;;;;15.21;89.95;98973.47;6268398;20;3537789;-38
2024/04/15 05:00:17;;;;;;;;;15.00;14.00;;;;;15.35;88.78;98968.53;6274423;20;2496241;-38
2024/04/15 05:02:46;;;;;;;;;13.00;12.00;;;;;15.66;85.29;98967.47;6277482;20;2813853;-37
2024/04/15 05:05:13;;;;;;;;;16.00;13.33;;;;;15.61;84.38;98967.91;6275030;20;3544154;-37
2024/04/15 05:07:42;;;;;;;;;37.00;32.67;;;;;15.69;86.35;98964.50;6274813;20;3619143;-37
2024/04/15 05:10:10;;;;;;;;;14.00;13.00;;;;;15.62;83.22;98971.50;6305251;20;3533616;-38
2024/04/15 05:12:37;;;;;;;;;15.00;13.00;;;;;15.97;80.77;98979.84;6272100;20;3514846;-37
2024/04/15 05:15:05;;;;;;;;;14.67;13.00;;;;;15.94;80.54;98979.31;6303075;20;3539886;-37
2024/04/15 05:17:32;;;;;;;;;14.00;14.00;;;;;16.15;79.76;98976.41;6273459;20;2491959;-37
2024/04/15 05:19:59;;;;;;;;;13.33;13.33;;;;;16.19;80.17;98977.78;6276645;20;3529442;-37
2024/04/15 05:22:26;;;;;;;;;16.50;15.00;;;;;16.18;79.46;98978.81;6268504;20;2491951;-37
2024/04/15 05:24:54;;;;;;;;;15.00;15.00;;;;;16.20;80.30;98979.50;6274462;20;2806542;-37
2024/04/15 05:27:22;;;;;;;;;15.33;15.33;;;;;16.34;77.76;98976.31;6271399;20;3571167;-37
2024/04/15 05:29:49;;;;;;;;;11.67;11.67;;;;;16.32;78.26;98970.19;6271252;20;3509648;-38
2024/04/15 05:32:16;;;;;;;;;13.00;13.00;;;;;16.45;77.04;98965.28;6305898;20;2491934;-37
2024/04/15 05:34:43;;;;;;;;;11.67;11.67;;;;;16.64;76.52;98966.19;6275586;20;3527366;-38
2024/04/15 05:37:11;;;;;;;;;14.00;11.33;;;;;16.47;76.93;98959.72;6272384;20;3522182;-38
2024/04/15 05:39:38;;;;;;;;;14.00;12.33;;;;;16.74;75.62;98955.28;6273500;20;3524324;-37
2024/04/15 05:42:06;;;;;;;;;12.00;12.00;;;;;16.66;75.86;98958.75;6304520;20;3528431;-38
2024/04/15 05:44:33;;;;;;;;;10.67;10.67;;;;;16.78;75.50;98954.03;6272118;20;3516922;-37
2024/04/15 05:47:01;;;;;;;;;12.67;12.67;;;;;16.70;76.23;98949.34;6271804;20;3520143;-37
2024/04/15 05:49:27;;;;;;;;;13.00;11.00;;;;;16.81;75.83;98951.84;6273522;20;2483745;-37
2024/04/15 05:51:55;;;;;;;;;16.33;13.33;;;;;16.93;74.85;98946.22;6275146;20;3550285;-38
2024/04/15 05:54:22;;;;;;;;;13.33;12.33;;;;;16.84;75.72;98921.72;6275474;20;3535732;-39
2024/04/15 05:56:49;;;;;;;;;12.33;11.67;;;;;16.86;75.45;98917.00;6274673;20;3520101;-37
2024/04/15 05:59:17;;;;;;;;;11.33;11.00;;;;;16.88;75.85;98909.59;6271837;20;3520149;-38
2024/04/15 06:01:44;;;;;;;;;13.00;12.33;;;;;16.91;74.41;98915.72;6304642;20;3525285;-38
2024/04/15 06:04:11;;;;;;;;;13.00;13.00;;;;;17.12;74.42;98913.53;6271906;20;2489969;-37
2024/04/15 06:06:37;;;;;;;;;15.00;13.50;;;;;17.36;72.91;98914.78;6273419;20;2490114;-37
2024/04/15 06:09:05;;;;;;;;;12.00;12.00;;;;;17.42;73.30;98916.84;6272967;20;2662818;-38
2024/04/15 06:11:31;;;;;;;;;15.00;13.00;;;;;17.48;72.87;98917.09;6304104;20;2812926;-37
2024/04/15 06:13:59;;;;;;;;;15.00;14.00;;;;;17.73;71.91;98907.25;6275613;20;3539875;-37
2024/04/15 06:16:25;;;;;;;;;14.00;13.00;;;;;17.68;71.95;98912.28;6273738;20;2804449;-37
2024/04/15 06:18:53;;;;;;;;;14.67;13.33;;;;;17.51;72.71;98907.78;6269998;20;3524228;-37
2024/04/15 06:21:20;;;;;;;;;19.00;17.00;;;;;17.89;71.00;98908.41;6272819;20;2835806;-37
2024/04/15 06:23:47;;;;;;;;;15.00;15.00;;;;;18.06;70.13;98912.03;6274391;20;2815908;-38
2024/04/15 06:26:15;;;;;;;;;17.00;15.00;;;;;18.18;69.19;98914.31;6276295;20;2815055;-38
2024/04/15 06:28:42;;;;;;;;;14.00;13.00;;;;;18.07;68.92;98900.19;6274988;20;2492030;-38
2024/04/15 06:31:10;;;;;;;;;19.00;17.00;;;;;18.02;69.69;98894.38;6275412;20;2829624;-37
2024/04/15 06:33:37;;;;;;;;;13.67;13.67;;;;;17.91;68.55;98898.22;6274204;20;3539838;-37
2024/04/15 06:36:05;;;;;;;;;13.00;13.00;;;;;18.19;68.71;98898.88;6272634;20;2500364;-38
2024/04/15 06:38:31;;;;;;;;;14.00;14.00;;;;;18.34;67.47;98891.81;6277546;20;2793034;-37
2024/04/15 06:40:59;;;;;;;;;15.00;15.00;;;;;18.17;68.33;98899.06;6276358;20;2672374;-36
2024/04/15 06:43:27;;;;;;;;;15.50;13.00;;;;;18.41;68.42;98892.03;6304310;20;2483608;-36
2024/04/15 06:45:54;;;;;;;;;13.67;12.00;;;;;18.59;67.24;98894.63;6274181;20;3523167;-37
2024/04/15 06:48:22;;;;;;;;;12.50;12.50;;;;;18.64;67.31;98904.00;6305868;20;2796255;-38
2024/04/15 06:50:48;;;;;;;;;14.50;12.50;;;;;18.52;66.32;98888.16;6305919;20;2483717;-37
2024/04/15 06:53:16;;;;;;;;;12.00;12.00;;;;;18.54;66.07;98900.56;6272018;20;2795075;-38
2024/04/15 06:55:43;;;;;;;;;13.67;13.67;;;;;18.61;66.27;98909.72;6271101;20;3531658;-36
2024/04/15 06:58:11;;;;;;;;;14.00;13.67;;;;;18.69;65.79;98916.22;6276466;20;3512847;-37
2024/04/15 07:00:39;;;;;;;;;15.50;15.50;;;;;18.82;65.92;98906.59;6272026;20;2816936;-35
2024/04/15 07:03:06;;;;;;;;;15.00;15.00;;;;;18.90;65.37;98903.03;6276797;20;3542020;-38
2024/04/15 07:05:34;;;;;;;;;17.00;15.50;;;;;19.22;64.52;98904.09;6302563;20;2823209;-38
2024/04/15 07:08:01;;;;;;;;;14.00;14.00;;;;;19.09;64.63;98891.03;6273444;20;3527472;-38
2024/04/15 07:10:28;;;;;;;;;0.00;0.00;;;;;19.12;64.62;98889.84;6276400;20;2739887;-38
2024/04/15 07:12:54;;;;;;;;;14.00;14.00;;;;;19.16;63.91;98893.91;6274978;20;2500453;-37
2024/04/15 07:15:22;;;;;;;;;16.00;14.33;;;;;19.12;63.71;98895.28;6276462;20;2817102;-35
2024/04/15 07:17:49;;;;;;;;;9.67;9.67;;;;;19.33;63.27;98895.63;6304756;20;3503375;-38
2024/04/15 07:20:16;;;;;;;;;14.50;14.50;;;;;19.25;63.63;98885.59;6296987;20;3483595;-37
2024/04/15 07:22:44;;;;;;;;;15.00;14.00;;;;;19.60;62.01;98896.28;6300733;20;3529492;-37
2024/04/15 07:25:10;;;;;;;;;16.50;14.50;;;;;19.53;62.79;98894.25;6271776;20;2492005;-35
2024/04/15 07:27:40;;;;;;;;;15.00;14.00;;;;;19.43;62.14;98904.47;6274828;20;2492004;-36
2024/04/15 07:30:08;;;;;;;;;16.00;16.00;;;;;19.74;60.70;98907.34;6271634;20;3554417;-36
2024/04/15 07:32:36;;;;;;;;;15.33;13.00;;;;;20.00;60.82;98900.00;6270603;20;3532605;-35
2024/04/15 07:35:04;;;;;;;;;12.67;11.67;;;;;20.12;59.63;98899.47;6271812;20;3517978;-35
2024/04/15 07:37:31;;;;;;;;;12.67;10.67;;;;;20.31;59.48;98898.19;6273995;20;3518116;-38
2024/04/15 07:39:58;;;;;;;;;15.00;15.00;;;;;19.94;59.88;98905.13;6272434;20;2483614;-36
2024/04/15 07:42:25;;;;;;;;;11.33;11.33;;;;;20.06;58.36;98905.59;6279026;20;2800292;-35
2024/04/15 07:44:53;;;;;;;;;12.67;12.67;;;;;20.17;59.02;98904.41;6303114;20;3518067;-35
2024/04/15 07:47:20;;;;;;;;;14.50;14.00;;;;;20.02;58.89;98904.25;6305885;20;2488264;-37
2024/04/15 07:49:46;;;;;;;;;16.00;14.00;;;;;19.68;59.83;98891.72;6271064;20;2491941;-35
2024/04/15 07:52:14;;;;;;;;;16.33;15.00;;;;;20.54;59.66;98886.56;6275384;20;2809674;-36
2024/04/15 07:54:41;;;;;;;;;14.00;12.33;;;;;20.13;58.76;98873.03;6303139;20;3508615;-35
2024/04/15 07:57:09;;;;;;;;;17.00;13.00;;;;;20.72;57.90;98878.97;6278047;20;2485686;-36
2024/04/15 07:59:37;;;;;;;;;13.33;13.33;;;;;20.53;57.56;98876.63;6273283;20;3530492;-38
2024/04/15 08:02:04;;;;;;;;;11.67;11.00;;;;;20.53;58.42;98874.75;6270980;20;3511858;-35
2024/04/15 08:04:32;;;;;;;;;12.00;12.00;;;;;20.61;57.64;98876.59;6306028;20;2498395;-36
2024/04/15 08:06:59;;;;;;;;;16.00;16.00;;;;;20.66;57.41;98885.09;6302728;20;3544020;-38
2024/04/15 08:09:26;;;;;;;;;12.33;12.33;;;;;20.03;57.54;98880.56;6271221;20;2496113;-35
2024/04/15 08:11:54;;;;;;;;;15.00;14.00;;;;;20.28;58.13;98892.25;6306113;20;3535677;-36
2024/04/15 08:14:22;;;;;;;;;14.00;14.00;;;;;20.07;57.61;98873.75;6304372;20;3533759;-38
2024/04/15 08:16:49;;;;;;;;;14.00;14.00;;;;;20.42;57.79;98866.13;6274869;20;3536801;-36
2024/04/15 08:19:17;;;;;;;;;15.67;15.00;;;;;20.27;57.49;98855.94;6271609;20;3535717;-36
2024/04/15 08:21:44;;;;;;;;;15.50;15.50;;;;;20.07;57.90;98846.50;6302514;20;2820287;-35
2024/04/15 08:24:11;;;;;;;;;18.00;17.00;;;;;20.36;57.96;98843.16;6272659;20;2818066;-35
2024/04/15 08:26:39;;;;;;;;;15.67;14.33;;;;;20.57;56.62;98850.75;6273747;20;3544036;-36
2024/04/15 08:29:08;;;;;;;;;14.00;14.00;;;;;20.49;56.88;98856.22;6304081;20;2496114;-35
2024/04/15 08:31:35;;;;;;;;;13.00;13.00;;;;;20.44;57.34;98851.28;6306278;20;2498302;-36
2024/04/15 08:34:03;;;;;;;;;16.00;14.00;;;;;20.24;58.19;98847.28;6304213;20;2483652;-36
2024/04/15 08:36:30;;;;;;;;;16.33;15.00;;;;;20.59;56.60;98846.81;6310049;20;3540086;-36
2024/04/15 08:38:57;;;;;;;;;18.67;15.00;;;;;20.34;57.29;98848.75;6311049;20;3553382;-35
2024/04/15 08:41:30;;;;;;;;;13.00;12.00;;;;;20.62;57.09;98856.50;6309301;20;2492005;-36
2024/04/15 08:44:05;;;;;;;;;13.33;13.33;;;;;20.61;57.85;98852.06;6307363;20;2483705;-36
2024/04/15 08:46:46;;;;;;;;;17.50;15.50;;;;;20.54;57.64;98849.22;6304537;20;2821177;-35
2024/04/15 08:49:14;;;;;;;;;14.50;14.50;;;;;20.64;57.24;98862.59;6275001;20;2801964;-36
2024/04/15 08:51:41;;;;;;;;;14.00;11.33;;;;;20.63;57.01;98858.19;6276292;20;2782699;-43
2024/04/15 08:54:09;;;;;;;;;16.67;12.00;;;;;20.61;58.34;98863.81;6306058;20;2487765;-37
2024/04/15 08:56:42;;;;;;;;;17.00;15.50;;;;;20.75;57.74;98864.94;6307902;20;2821258;-36
2024/04/15 08:59:15;;;;;;;;;13.50;13.50;;;;;21.35;56.20;98854.25;6286546;20;2803467;-38
2024/04/15 09:01:43;;;;;;;;;15.00;15.00;;;;;20.91;57.54;98865.88;6276699;20;3420201;-36
2024/04/15 09:04:11;;;;;;;;;13.33;13.33;;;;;21.69;55.73;98862.00;6306182;20;3523274;-39
2024/04/15 09:06:39;;;;;;;;;11.67;11.00;;;;;21.51;55.67;98867.78;6274957;20;3519019;-36
2024/04/15 09:09:06;;;;;;;;;17.33;16.33;;;;;21.51;55.73;98861.47;6311419;20;3552463;-37
2024/04/15 09:11:38;;;;;;;;;15.67;14.00;;;;;22.17;53.77;98858.91;6278088;20;3538806;-39
2024/04/15 09:14:05;;;;;;;;;16.33;15.00;;;;;22.05;54.39;98853.91;6306033;20;3545167;-37
2024/04/15 09:16:32;;;;;;;;;14.50;14.50;;;;;22.10;54.84;98851.47;6272009;20;2810766;-37
2024/04/15 09:19:06;;;;;;;;;15.00;14.00;;;;;22.27;54.12;98851.28;6277268;20;3532596;-39
2024/04/15 09:21:34;;;;;;;;;14.00;14.00;;;;;21.61;54.99;98845.69;6277547;20;2487912;-38
2024/04/15 09:24:01;;;;;;;;;14.67;14.33;;;;;21.92;54.45;98848.25;6307466;20;2500411;-37
2024/04/15 09:26:28;;;;;;;;;13.00;11.33;;;;;22.21;53.91;98852.91;6309644;20;2489881;-38
2024/04/15 09:28:56;;;;;;;;;14.00;13.00;;;;;23.04;52.59;98863.59;6310688;20;3523220;-41
2024/04/15 09:31:23;;;;;;;;;13.67;13.67;;;;;22.50;53.17;98852.00;6307887;20;3538808;-37
2024/04/15 09:33:50;;;;;;;;;13.00;13.00;;;;;23.23;51.55;98855.59;6308804;20;2483699;-38
2024/04/15 09:36:18;;;;;;;;;15.67;14.00;;;;;23.38;51.28;98839.06;6310997;20;3538904;-37
2024/04/15 09:38:46;;;;;;;;;13.33;13.33;;;;;24.24;50.73;98843.47;6305033;20;3523354;-37
2024/04/15 09:41:14;;;;;;;;;15.00;13.00;;;;;23.54;50.84;98837.06;6277974;20;3528540;-37
2024/04/15 09:43:46;;;;;;;;;16.50;16.00;;;;;23.84;49.90;98830.38;6306538;20;2832617;-37
2024/04/15 09:46:13;;;;;;;;;12.67;12.67;;;;;23.70;49.77;98828.56;6275022;20;3528431;-38
2024/04/15 09:48:42;;;;;;;;;17.33;16.00;;;;;24.16;48.81;98819.78;6273586;20;3559896;-37
2024/04/15 09:51:22;;;;;;;;;14.33;12.67;;;;;24.08;49.81;98831.78;6302750;20;2483651;-37
2024/04/15 09:53:53;;;;;;;;;14.00;12.00;;;;;23.78;48.72;98824.84;6305144;20;3535701;-38
2024/04/15 09:56:33;;;;;;;;;13.50;12.00;;;;;23.76;49.44;98825.06;6311046;20;2744065;-37
2024/04/15 09:59:01;;;;;;;;;13.00;13.00;;;;;24.25;48.65;98828.69;6300803;20;2798322;-37
2024/04/15 10:01:31;;;;;;;;;13.00;12.00;;;;;24.92;47.61;98827.06;6273380;20;2782684;-37
2024/04/15 10:04:04;;;;;;;;;15.33;14.00;;;;;24.25;48.69;98823.19;6304904;20;3548307;-38
2024/04/15 10:06:43;;;;;;;;;15.67;15.67;;;;;25.11;47.33;98817.16;6308345;20;3545235;-39
2024/04/15 10:09:11;;;;;;;;;13.50;13.00;;;;;25.88;46.01;98815.69;6305866;20;2810744;-41
2024/04/15 10:11:39;;;;;;;;;6.00;6.00;;;;;25.68;46.07;98818.47;6277642;20;2731527;-41
2024/04/15 10:14:07;;;;;;;;;10.00;8.67;;;;;26.01;45.12;98817.56;6315059;20;2748304;-41
2024/04/15 10:16:35;;;;;;;;;12.67;11.67;;;;;26.13;43.75;98815.00;6311869;20;3514868;-43
2024/04/15 10:19:03;;;;;;;;;12.33;12.33;;;;;25.60;45.35;98816.78;6308175;20;3528555;-41
2024/04/15 10:21:30;;;;;;;;;16.33;12.67;;;;;26.65;44.45;98807.63;6309380;20;3544130;-40
2024/04/15 10:23:57;;;;;;;;;15.33;14.00;;;;;26.33;44.05;98806.66;6310517;20;3536798;-40
2024/04/15 10:26:27;;;;;;;;;13.67;13.67;;;;;26.34;44.94;98794.63;6307716;20;3533830;-40
2024/04/15 10:29:22;;;;;;;;;11.67;11.67;;;;;26.76;43.96;98798.66;6307338;20;2483663;-41
2024/04/15 10:31:57;;;;;;;;;16.67;12.67;;;;;26.10;44.28;98794.28;6309820;20;3527329;-40
2024/04/15 10:34:27;;;;;;;;;17.00;14.00;;;;;26.45;43.82;98794.75;6304157;20;2814995;-40
2024/04/15 10:36:56;;;;;;;;;8.00;8.00;;;;;26.30;43.11;98790.59;6275352;20;2748259;-41
2024/04/15 10:39:24;;;;;;;;;15.50;12.00;;;;;26.64;43.98;98789.41;6302761;20;2810717;-41
2024/04/15 10:41:52;;;;;;;;;14.00;14.00;;;;;26.65;43.02;98785.59;6276317;20;3531543;-40
2024/04/15 10:44:19;;;;;;;;;13.00;13.00;;;;;26.73;43.74;98788.09;6308702;20;3521110;-42
2024/04/15 10:46:48;;;;;;;;;12.00;12.00;;;;;25.98;44.66;98785.84;6305532;20;3531493;-39
2024/04/15 10:49:16;;;;;;;;;12.67;12.67;;;;;26.26;43.71;98787.44;6277504;20;3525393;-42
2024/04/15 10:51:46;;;;;;;;;14.50;13.50;;;;;26.01;44.46;98793.69;6306649;20;2810741;-41
2024/04/15 10:54:14;;;;;;;;;12.67;11.33;;;;;26.14;44.25;98790.00;6273708;20;3517108;-41
2024/04/15 10:56:41;;;;;;;;;15.33;13.00;;;;;25.85;43.96;98794.13;6309665;20;3524346;-41
2024/04/15 10:59:15;;;;;;;;;11.50;11.00;;;;;26.21;42.93;98790.84;6302227;20;2788832;-40
2024/04/15 11:01:45;;;;;;;;;14.67;13.00;;;;;26.75;42.97;98796.13;6274148;20;2483680;-40
2024/04/15 11:04:13;;;;;;;;;15.00;13.33;;;;;26.55;44.02;98791.56;6309179;20;3536909;-42